createdAt,value
2022-10-13T00:01:56.483Z,98917.84
2022-10-13T00:04:57.996Z,98909.88
2022-10-13T00:08:00.245Z,98911.97
2022-10-13T00:11:10.758Z,98916.75
2022-10-13T00:14:12.266Z,98915.19
2022-10-13T00:17:13.922Z,98917.81
2022-10-13T00:20:15.442Z,98917.25
2022-10-13T00:23:17.109Z,98911.72
2022-10-13T00:26:18.686Z,98910.19
2022-10-13T00:29:20.198Z,98916.78
2022-10-13T00:32:21.837Z,98916.34
2022-10-13T00:35:23.430Z,98915.56
2022-10-13T00:38:24.990Z,98915.81
2022-10-13T00:41:26.497Z,98913.69
2022-10-13T00:44:46.777Z,98909.72
2022-10-13T00:47:50.381Z,98911.03
2022-10-13T00:50:51.969Z,98913.16
2022-10-13T00:53:53.660Z,98918.75
2022-10-13T00:56:57.588Z,98912.66
2022-10-13T00:59:59.121Z,98918.13
2022-10-13T01:03:01.132Z,98911.94
2022-10-13T01:06:02.856Z,98917.16
2022-10-13T01:09:04.409Z,98927.41
2022-10-13T01:12:11.919Z,98925.00
2022-10-13T01:15:16.625Z,98934.00
2022-10-13T01:18:21.523Z,98931.97
2022-10-13T01:21:58.806Z,98932.78
2022-10-13T01:25:08.652Z,98931.50
2022-10-13T01:28:20.702Z,98928.75
2022-10-13T01:31:22.255Z,98931.84
2022-10-13T01:34:23.765Z,98936.56
2022-10-13T01:37:27.715Z,98947.81
2022-10-13T01:40:30.372Z,98935.16
2022-10-13T01:43:36.725Z,98939.22
2022-10-13T01:46:38.583Z,98932.28
2022-10-13T01:49:40.112Z,98941.28
2022-10-13T01:52:41.617Z,98939.13
2022-10-13T01:55:53.760Z,98940.28
2022-10-13T01:58:55.376Z,98935.53
2022-10-13T02:02:07.037Z,98942.69
2022-10-13T02:05:08.748Z,98938.94
2022-10-13T02:08:16.150Z,98943.44
2022-10-13T02:11:18.506Z,98947.97
2022-10-13T02:14:21.432Z,98949.19
2022-10-13T02:17:23.004Z,98956.53
2022-10-13T02:20:24.573Z,98953.63
2022-10-13T02:23:26.182Z,98953.16
2022-10-13T02:26:27.769Z,98946.44
2022-10-13T02:29:35.553Z,98946.28
2022-10-13T02:32:37.178Z,98944.97
2022-10-13T02:35:38.972Z,98942.69
2022-10-13T02:38:40.506Z,98936.28
2022-10-13T02:41:42.093Z,98926.03
2022-10-13T02:44:43.623Z,98927.13
2022-10-13T02:47:45.585Z,98925.81
2022-10-13T02:50:47.721Z,98927.69
2022-10-13T02:53:49.321Z,98924.72
2022-10-13T02:56:50.854Z,98923.91
2022-10-13T02:59:52.527Z,98926.56
2022-10-13T03:02:54.983Z,98936.34
2022-10-13T03:05:56.549Z,98933.16
2022-10-13T03:08:59.281Z,98939.47
2022-10-13T03:12:00.880Z,98934.91
2022-10-13T03:15:02.402Z,98934.53
2022-10-13T03:18:04.049Z,98934.00
2022-10-13T03:21:06.488Z,98929.16
2022-10-13T03:24:08.332Z,98924.59
2022-10-13T03:27:09.893Z,98931.75
2022-10-13T03:30:11.765Z,98927.50
2022-10-13T03:33:13.698Z,98925.88
2022-10-13T03:36:15.324Z,98929.88
2022-10-13T03:39:17.199Z,98934.06
2022-10-13T03:42:18.983Z,98935.34
2022-10-13T03:45:22.078Z,98933.50
2022-10-13T03:48:23.753Z,98933.50
2022-10-13T03:51:25.592Z,98923.66
2022-10-13T03:54:27.482Z,98918.88
2022-10-13T03:57:29.097Z,98925.75
2022-10-13T04:00:30.637Z,98926.50
2022-10-13T04:03:32.536Z,98921.31
2022-10-13T04:06:34.073Z,98932.41
2022-10-13T04:09:35.593Z,98925.81
2022-10-13T04:12:37.149Z,98924.28
2022-10-13T04:15:39.217Z,98927.22
2022-10-13T04:18:44.432Z,98926.97
2022-10-13T04:21:46.456Z,98925.94
2022-10-13T04:24:48.109Z,98932.47
2022-10-13T04:27:50.406Z,98931.69
2022-10-13T04:30:52.022Z,98922.03
2022-10-13T04:33:53.572Z,98919.19
2022-10-13T04:36:55.257Z,98923.38
2022-10-13T04:39:56.852Z,98924.03
2022-10-13T04:42:58.449Z,98919.38
2022-10-13T04:46:10.278Z,98911.44
2022-10-13T04:49:11.889Z,98910.69
2022-10-13T04:52:13.413Z,98909.13
2022-10-13T04:55:15.023Z,98903.13
2022-10-13T04:58:21.596Z,98902.63
2022-10-13T05:01:24.679Z,98907.94
2022-10-13T05:04:26.277Z,98901.13
2022-10-13T05:07:27.910Z,98900.34
2022-10-13T05:10:34.550Z,98900.28
2022-10-13T05:13:36.379Z,98905.50
2022-10-13T05:16:37.929Z,98912.44
2022-10-13T05:19:39.488Z,98915.56
2022-10-13T05:22:41.039Z,98908.81
2022-10-13T05:25:42.726Z,98911.69
2022-10-13T05:28:47.587Z,98900.25
2022-10-13T05:31:49.204Z,98897.69
2022-10-13T05:34:50.781Z,98892.44
2022-10-13T05:37:52.348Z,98889.31
2022-10-13T05:40:53.889Z,98894.09
2022-10-13T05:43:59.528Z,98881.22
2022-10-13T05:47:05.109Z,98869.09
2022-10-13T05:50:09.069Z,98876.75
2022-10-13T05:53:11.590Z,98880.69
2022-10-13T05:56:14.659Z,98879.72
2022-10-13T05:59:16.402Z,98874.91
2022-10-13T06:02:23.289Z,98882.72
2022-10-13T06:05:25.073Z,98895.72
2022-10-13T06:08:27.484Z,98898.63
2022-10-13T06:11:29.039Z,98878.44
2022-10-13T06:14:31.301Z,98884.16
2022-10-13T06:17:35.627Z,98880.25
2022-10-13T06:20:37.257Z,98888.09
2022-10-13T06:23:39.586Z,98890.13
2022-10-13T06:26:41.330Z,98898.44
2022-10-13T06:29:42.875Z,98888.72
2022-10-13T06:32:44.428Z,98906.72
2022-10-13T06:35:46.013Z,98913.63
2022-10-13T06:38:48.261Z,98910.63
2022-10-13T06:41:52.638Z,98903.78
2022-10-13T06:44:55.012Z,98900.88
2022-10-13T06:47:56.644Z,98896.56
2022-10-13T06:51:02.278Z,98901.16
2022-10-13T06:54:03.892Z,98908.16
2022-10-13T06:57:06.128Z,98912.75
2022-10-13T07:00:08.099Z,98914.59
2022-10-13T07:03:10.901Z,98913.22
2022-10-13T07:06:12.611Z,98904.44
2022-10-13T07:09:14.281Z,98883.63
2022-10-13T07:12:16.060Z,98875.28
2022-10-13T07:15:17.851Z,98888.03
2022-10-13T07:18:19.977Z,98892.56
2022-10-13T07:21:21.819Z,98880.13
2022-10-13T07:24:23.510Z,98874.16
2022-10-13T07:27:25.375Z,98874.16
2022-10-13T07:30:27.116Z,98873.44
2022-10-13T07:33:28.794Z,98875.16
2022-10-13T07:36:31.143Z,98880.00
2022-10-13T07:39:32.853Z,98877.91
2022-10-13T07:42:34.461Z,98886.25
2022-10-13T07:45:36.041Z,98878.09
2022-10-13T07:48:38.018Z,98878.00
2022-10-13T07:51:39.817Z,98882.78
2022-10-13T07:54:42.849Z,98886.81
2022-10-13T07:57:44.387Z,98885.59
2022-10-13T08:00:45.910Z,98888.66
2022-10-13T08:03:50.342Z,98882.69
2022-10-13T08:06:53.053Z,98884.13
2022-10-13T08:09:54.614Z,98885.47
2022-10-13T08:12:56.322Z,98889.72
2022-10-13T08:16:00.001Z,98886.03
2022-10-13T08:19:07.957Z,98885.56
2022-10-13T08:22:10.484Z,98894.63
2022-10-13T08:25:14.772Z,98901.03
2022-10-13T08:28:20.315Z,98910.91
2022-10-13T08:31:22.257Z,98908.56
2022-10-13T08:34:24.203Z,98902.75
2022-10-13T08:37:25.804Z,98906.50
2022-10-13T08:40:27.385Z,98897.69
2022-10-13T08:43:28.897Z,98899.53
2022-10-13T08:46:34.805Z,98913.09
2022-10-13T08:49:36.319Z,98912.56
2022-10-13T08:52:56.702Z,98904.31
2022-10-13T08:56:03.329Z,98901.63
2022-10-13T08:59:07.364Z,98908.00
2022-10-13T09:02:13.913Z,98910.91
2022-10-13T09:05:41.599Z,98906.41
2022-10-13T09:08:44.211Z,98913.34
2022-10-13T09:11:46.845Z,98914.38
2022-10-13T09:14:59.905Z,98914.09
2022-10-13T09:18:08.770Z,98904.19
2022-10-13T09:21:21.964Z,98908.88
2022-10-13T09:24:24.630Z,98905.91
2022-10-13T09:27:43.638Z,98899.69
2022-10-13T09:30:49.005Z,98907.06
2022-10-13T09:34:23.690Z,98906.72
2022-10-13T09:37:28.342Z,98908.25
2022-10-13T09:40:32.166Z,98910.56
2022-10-13T09:43:34.720Z,98907.88
2022-10-13T09:46:37.652Z,98913.38
2022-10-13T09:49:40.002Z,98917.09
2022-10-13T09:52:42.550Z,98910.41
2022-10-13T09:55:48.520Z,98908.97
2022-10-13T09:58:57.708Z,98902.22
2022-10-13T10:02:08.101Z,98906.97
2022-10-13T10:05:23.140Z,98913.03
2022-10-13T10:08:33.797Z,98915.41
2022-10-13T10:11:41.057Z,98903.50
2022-10-13T10:14:42.587Z,98900.22
2022-10-13T10:17:46.846Z,98895.53
2022-10-13T10:20:48.393Z,98899.69
2022-10-13T10:23:51.998Z,98894.38
2022-10-13T10:26:53.617Z,98900.59
2022-10-13T10:29:58.461Z,98901.38
2022-10-13T10:33:03.730Z,98896.91
2022-10-13T10:36:07.365Z,98899.56
2022-10-13T10:39:14.986Z,98898.72
2022-10-13T10:42:22.469Z,98889.63
2022-10-13T10:45:28.913Z,98882.94
2022-10-13T10:48:30.706Z,98878.13
2022-10-13T10:51:33.809Z,98872.28
2022-10-13T10:54:45.060Z,98872.66
2022-10-13T10:57:48.277Z,98870.94
2022-10-13T11:01:12.877Z,98864.59
2022-10-13T11:04:38.512Z,98868.25
2022-10-13T11:07:40.077Z,98857.03
2022-10-13T11:10:41.686Z,98841.16
2022-10-13T11:13:55.968Z,98839.41
2022-10-13T11:17:06.754Z,98833.34
2022-10-13T11:20:17.987Z,98825.75
2022-10-13T11:23:19.570Z,98834.94
2022-10-13T11:26:28.761Z,98829.97
2022-10-13T11:29:51.854Z,98823.97
2022-10-13T11:32:56.300Z,98812.28
2022-10-13T11:35:57.842Z,98806.88
2022-10-13T11:39:13.572Z,98813.09
2022-10-13T11:42:27.288Z,98814.41
2022-10-13T11:45:47.407Z,98812.84
2022-10-13T11:48:52.133Z,98809.94
2022-10-13T11:52:02.801Z,98806.44
2022-10-13T11:55:20.120Z,98813.84
2022-10-13T11:58:24.047Z,98810.25
2022-10-13T12:01:25.865Z,98798.09
2022-10-13T12:04:28.084Z,98779.56
2022-10-13T12:07:32.363Z,98778.09
2022-10-13T12:10:35.795Z,98775.47
2022-10-13T12:13:37.837Z,98766.47
2022-10-13T12:16:39.415Z,98766.03
2022-10-13T12:19:41.448Z,98766.47
2022-10-13T12:22:47.898Z,98768.56
2022-10-13T12:25:49.986Z,98756.97
2022-10-13T12:28:56.142Z,98751.31
2022-10-13T12:31:58.632Z,98754.34
2022-10-13T12:35:18.888Z,98756.78
2022-10-13T12:38:21.536Z,98761.38
2022-10-13T12:41:25.077Z,98766.09
2022-10-13T12:44:30.825Z,98750.13
2022-10-13T12:47:58.808Z,98730.66
2022-10-13T12:51:13.238Z,98724.97
2022-10-13T12:54:20.463Z,98719.47
2022-10-13T12:57:23.173Z,98716.97
2022-10-13T13:00:26.694Z,98713.19
2022-10-13T13:03:29.067Z,98697.59
2022-10-13T13:06:31.998Z,98674.00
2022-10-13T13:09:34.878Z,98669.38
2022-10-13T13:12:36.804Z,98675.44
2022-10-13T13:15:41.974Z,98668.03
2022-10-13T13:18:44.275Z,98667.41
2022-10-13T13:21:45.936Z,98661.59
2022-10-13T13:24:47.645Z,98669.56
2022-10-13T13:27:49.814Z,98663.03
2022-10-13T13:30:51.327Z,98673.72
2022-10-13T13:33:52.885Z,98674.75
2022-10-13T13:36:54.366Z,98673.41
2022-10-13T13:39:55.997Z,98672.66
2022-10-13T13:42:57.522Z,98681.97
2022-10-13T13:46:05.919Z,98680.63
2022-10-13T13:49:07.526Z,98674.22
2022-10-13T13:52:09.042Z,98675.66
2022-10-13T13:55:10.586Z,98681.53
2022-10-13T13:58:12.109Z,98668.53
2022-10-13T14:01:14.223Z,98657.69
2022-10-13T14:04:15.738Z,98659.13
2022-10-13T14:07:17.447Z,98652.25
2022-10-13T14:10:20.864Z,98647.50
2022-10-13T14:13:22.430Z,98651.44
2022-10-13T14:16:24.056Z,98643.38
2022-10-13T14:19:26.141Z,98643.31
2022-10-13T14:22:27.722Z,98631.47
2022-10-13T14:25:29.245Z,98630.25
2022-10-13T14:28:30.871Z,98622.00
2022-10-13T14:31:33.282Z,98631.81
2022-10-13T14:34:34.801Z,98626.31
2022-10-13T14:37:36.595Z,98622.34
2022-10-13T14:40:42.011Z,98612.97
2022-10-13T14:43:43.780Z,98630.91
2022-10-13T14:46:45.765Z,98614.38
2022-10-13T14:49:47.324Z,98614.63
2022-10-13T14:52:48.956Z,98616.75
2022-10-13T14:55:50.464Z,98611.34
2022-10-13T14:58:52.914Z,98610.88
2022-10-13T15:01:54.453Z,98625.97
2022-10-13T15:04:56.183Z,98617.63
2022-10-13T15:07:57.727Z,98625.06
2022-10-13T15:11:00.194Z,98621.56
2022-10-13T15:14:01.752Z,98619.06
2022-10-13T15:17:04.085Z,98622.78
2022-10-13T15:20:06.425Z,98615.16
2022-10-13T15:23:08.120Z,98622.22
2022-10-13T15:26:10.884Z,98622.41
2022-10-13T15:29:12.522Z,98612.91
2022-10-13T15:32:18.680Z,98611.06
2022-10-13T15:35:24.978Z,98604.13
2022-10-13T15:38:26.758Z,98605.88
2022-10-13T15:41:28.317Z,98600.41
2022-10-13T15:44:45.445Z,98602.06
2022-10-13T15:47:52.974Z,98581.91
2022-10-13T15:50:54.513Z,98578.97
2022-10-13T15:53:56.081Z,98570.06
2022-10-13T15:56:57.990Z,98581.28
2022-10-13T15:59:59.546Z,98573.16
2022-10-13T16:03:01.183Z,98577.72
2022-10-13T16:06:04.008Z,98582.75
2022-10-13T16:09:05.653Z,98578.69
2022-10-13T16:12:07.322Z,98572.78
2022-10-13T16:15:09.477Z,98580.34
2022-10-13T16:18:11.740Z,98565.00
2022-10-13T16:21:18.511Z,98568.88
2022-10-13T16:24:20.671Z,98568.47
2022-10-13T16:27:22.380Z,98575.22
2022-10-13T16:30:24.066Z,98577.25
2022-10-13T16:33:25.650Z,98576.13
2022-10-13T16:36:27.397Z,98568.25
2022-10-13T16:39:29.020Z,98572.03
2022-10-13T16:42:30.659Z,98565.16
2022-10-13T16:45:54.976Z,98570.38
2022-10-13T16:48:53.973Z,98570.72
2022-10-13T16:51:55.914Z,98567.72
2022-10-13T16:54:57.625Z,98566.38
2022-10-13T16:57:59.181Z,98571.53
2022-10-13T17:01:05.618Z,98562.47
2022-10-13T17:04:07.302Z,98565.38
2022-10-13T17:07:08.870Z,98551.84
2022-10-13T17:10:10.441Z,98558.97
2022-10-13T17:13:12.654Z,98550.78
2022-10-13T17:16:14.889Z,98540.19
2022-10-13T17:19:19.288Z,98545.56
2022-10-13T17:22:20.851Z,98546.59
2022-10-13T17:25:22.501Z,98554.69
2022-10-13T17:28:26.722Z,98566.44
2022-10-13T17:31:28.440Z,98566.28
2022-10-13T17:34:30.035Z,98560.72
2022-10-13T17:37:34.236Z,98567.94
2022-10-13T17:40:35.975Z,98570.19
2022-10-13T17:43:38.346Z,98563.06
2022-10-13T17:46:40.093Z,98559.28
2022-10-13T17:49:41.735Z,98564.63
2022-10-13T17:52:45.649Z,98570.81
2022-10-13T17:55:47.385Z,98562.88
2022-10-13T17:58:50.013Z,98561.56
2022-10-13T18:01:52.264Z,98563.19
2022-10-13T18:04:53.838Z,98550.41
2022-10-13T18:07:58.736Z,98555.06
2022-10-13T18:11:07.932Z,98558.56
2022-10-13T18:14:09.937Z,98566.69
2022-10-13T18:17:15.126Z,98552.00
2022-10-13T18:20:16.697Z,98558.06
2022-10-13T18:23:18.826Z,98552.72
2022-10-13T18:26:20.843Z,98545.56
2022-10-13T18:29:22.364Z,98534.91
2022-10-13T18:32:23.969Z,98540.06
2022-10-13T18:35:29.957Z,98546.56
2022-10-13T18:38:34.070Z,98543.19
2022-10-13T18:41:35.978Z,98541.91
2022-10-13T18:44:37.565Z,98538.50
2022-10-13T18:47:39.121Z,98536.94
2022-10-13T18:50:41.248Z,98527.59
2022-10-13T18:53:43.498Z,98531.31
2022-10-13T18:56:45.922Z,98530.81
2022-10-13T18:59:47.476Z,98530.88
2022-10-13T19:02:49.147Z,98534.13
2022-10-13T19:05:51.693Z,98532.06
2022-10-13T19:08:57.458Z,98525.50
2022-10-13T19:11:59.164Z,98527.72
2022-10-13T19:15:00.887Z,98528.25
2022-10-13T19:18:02.384Z,98524.59
2022-10-13T19:21:04.146Z,98519.63
2022-10-13T19:24:06.152Z,98511.66
2022-10-13T19:27:07.765Z,98506.09
2022-10-13T19:30:11.141Z,98503.34
2022-10-13T19:33:13.176Z,98499.66
2022-10-13T19:36:21.490Z,98498.81
2022-10-13T19:39:24.116Z,98503.06
2022-10-13T19:42:25.712Z,98498.78
2022-10-13T19:45:27.469Z,98495.66
2022-10-13T19:48:29.073Z,98490.66
2022-10-13T19:51:30.603Z,98487.78
2022-10-13T19:54:35.636Z,98483.03
2022-10-13T19:57:37.150Z,98467.31
2022-10-13T20:00:38.735Z,98462.50
2022-10-13T20:03:40.334Z,98462.75
2022-10-13T20:06:41.852Z,98471.81
2022-10-13T20:09:43.533Z,98466.56
2022-10-13T20:12:45.086Z,98457.56
2022-10-13T20:15:46.669Z,98451.19
2022-10-13T20:18:52.409Z,98451.22
2022-10-13T20:21:54.255Z,98452.13
2022-10-13T20:24:56.422Z,98462.56
2022-10-13T20:27:58.102Z,98461.25
2022-10-13T20:31:03.505Z,98455.09
2022-10-13T20:34:05.117Z,98459.75
2022-10-13T20:37:06.861Z,98459.69
2022-10-13T20:40:11.029Z,98449.00
2022-10-13T20:43:12.513Z,98456.94
2022-10-13T20:46:14.147Z,98456.69
2022-10-13T20:49:15.656Z,98447.34
2022-10-13T20:52:17.191Z,98441.69
2022-10-13T20:55:22.838Z,98438.25
2022-10-13T20:58:27.980Z,98439.31
2022-10-13T21:01:30.976Z,98436.13
2022-10-13T21:04:32.546Z,98434.00
2022-10-13T21:07:34.105Z,98439.34
2022-10-13T21:10:36.612Z,98424.56
2022-10-13T21:13:38.938Z,98429.69
2022-10-13T21:16:40.500Z,98432.34
2022-10-13T21:19:45.946Z,98420.97
2022-10-13T21:22:47.492Z,98420.47
2022-10-13T21:25:48.981Z,98423.66
2022-10-13T21:28:50.817Z,98422.59
2022-10-13T21:31:52.620Z,98418.31
2022-10-13T21:34:54.265Z,98415.66
2022-10-13T21:37:56.307Z,98408.81
2022-10-13T21:40:57.872Z,98408.81
2022-10-13T21:43:59.406Z,98404.03
2022-10-13T21:47:04.485Z,98397.66
2022-10-13T21:50:06.272Z,98392.03
2022-10-13T21:53:07.842Z,98397.28
2022-10-13T21:56:10.168Z,98397.41
2022-10-13T21:59:12.393Z,98382.97
2022-10-13T22:02:13.919Z,98373.69
2022-10-13T22:05:15.445Z,98368.63
2022-10-13T22:08:19.496Z,98356.19
2022-10-13T22:11:22.085Z,98355.69
2022-10-13T22:14:23.609Z,98347.72
2022-10-13T22:17:26.605Z,98353.81
2022-10-13T22:20:28.205Z,98352.41
2022-10-13T22:23:30.167Z,98354.41
2022-10-13T22:26:32.443Z,98353.50
2022-10-13T22:29:34.070Z,98343.63
2022-10-13T22:32:35.636Z,98339.66
2022-10-13T22:35:37.202Z,98341.53
2022-10-13T22:38:38.731Z,98338.19
2022-10-13T22:41:41.617Z,98342.69
2022-10-13T22:44:43.144Z,98333.94
2022-10-13T22:47:44.717Z,98328.56
2022-10-13T22:50:46.242Z,98333.16
2022-10-13T22:53:48.020Z,98333.91
2022-10-13T22:56:49.574Z,98335.56
2022-10-13T22:59:51.161Z,98331.78
2022-10-13T23:02:52.682Z,98324.69
2022-10-13T23:05:54.252Z,98329.16
2022-10-13T23:08:56.277Z,98309.53
2022-10-13T23:11:59.894Z,98317.63
2022-10-13T23:15:02.396Z,98317.44
2022-10-13T23:18:04.122Z,98313.97
2022-10-13T23:21:06.361Z,98302.31
2022-10-13T23:24:08.357Z,98293.50
2022-10-13T23:27:09.849Z,98301.44
2022-10-13T23:30:11.786Z,98293.44
2022-10-13T23:33:13.301Z,98287.91
2022-10-13T23:36:18.225Z,98289.06
2022-10-13T23:39:22.358Z,98290.78
2022-10-13T23:42:23.918Z,98293.81
2022-10-13T23:45:25.429Z,98288.06
2022-10-13T23:48:27.214Z,98296.91
2022-10-13T23:51:28.766Z,98288.50
2022-10-13T23:54:31.074Z,98296.13
2022-10-13T23:57:32.607Z,98289.50
